sensor_id;sensor_type;location;lat;lon;timestamp;pressure;altitude;pressure_sealevel;temperature;humidity
9439;BME280;5176;42.622;25.386;2023-05-08T19:20:28;97540.69;;;15.60;100.00
9439;BME280;5176;42.622;25.386;2023-05-08T19:22:57;97533.00;;;15.45;100.00
9439;BME280;5176;42.622;25.386;2023-05-08T19:25:26;97539.84;;;15.48;100.00
9439;BME280;5176;42.622;25.386;2023-05-08T19:27:54;97545.84;;;15.61;100.00
9439;BME280;5176;42.622;25.386;2023-05-08T19:30:24;97545.97;;;15.71;100.00
9439;BME280;5176;42.622;25.386;2023-05-08T19:32:53;97548.84;;;15.79;100.00
9439;BME280;5176;42.622;25.386;2023-05-08T19:35:22;97557.84;;;15.88;100.00
9439;BME280;5176;42.622;25.386;2023-05-08T19:37:52;97559.75;;;15.97;100.00
9439;BME280;5176;42.622;25.386;2023-05-08T19:40:21;97557.22;;;15.95;100.00
9439;BME280;5176;42.622;25.386;2023-05-08T19:42:49;97562.28;;;15.98;100.00
9439;BME280;5176;42.622;25.386;2023-05-08T19:45:19;97558.28;;;16.04;100.00
9439;BME280;5176;42.622;25.386;2023-05-08T19:47:47;97561.06;;;16.02;100.00
9439;BME280;5176;42.622;25.386;2023-05-08T19:50:16;97555.91;;;16.01;100.00
9439;BME280;5176;42.622;25.386;2023-05-08T19:52:44;97557.72;;;15.89;100.00
9439;BME280;5176;42.622;25.386;2023-05-08T19:55:17;97559.75;;;15.97;100.00
9439;BME280;5176;42.622;25.386;2023-05-08T19:57:46;97549.22;;;15.86;100.00
9439;BME280;5176;42.622;25.386;2023-05-08T20:00:15;97561.09;;;15.69;100.00
9439;BME280;5176;42.622;25.386;2023-05-08T20:02:43;97561.81;;;15.60;100.00
9439;BME280;5176;42.622;25.386;2023-05-08T20:05:12;97562.66;;;15.60;100.00
9439;BME280;5176;42.622;25.386;2023-05-08T20:07:41;97564.44;;;15.48;100.00
9439;BME280;5176;42.622;25.386;2023-05-08T20:10:10;97561.69;;;15.50;100.00
9439;BME280;5176;42.622;25.386;2023-05-08T20:12:40;97569.16;;;15.45;100.00
9439;BME280;5176;42.622;25.386;2023-05-08T20:15:10;97570.44;;;15.28;100.00
9439;BME280;5176;42.622;25.386;2023-05-08T20:17:38;97569.84;;;15.24;100.00
9439;BME280;5176;42.622;25.386;2023-05-08T20:20:08;97561.31;;;15.21;100.00
9439;BME280;5176;42.622;25.386;2023-05-08T20:22:37;97569.84;;;15.24;100.00
9439;BME280;5176;42.622;25.386;2023-05-08T20:25:06;97575.63;;;15.18;100.00
9439;BME280;5176;42.622;25.386;2023-05-08T20:27:34;97574.41;;;15.11;100.00
9439;BME280;5176;42.622;25.386;2023-05-08T20:30:05;97580.84;;;14.96;100.00
9439;BME280;5176;42.622;25.386;2023-05-08T20:32:34;97580.59;;;14.88;100.00
9439;BME280;5176;42.622;25.386;2023-05-08T20:35:03;97580.03;;;14.60;100.00
9439;BME280;5176;42.622;25.386;2023-05-08T20:37:32;97580.03;;;14.60;100.00
9439;BME280;5176;42.622;25.386;2023-05-08T20:40:01;97574.03;;;14.58;100.00
9439;BME280;5176;42.622;25.386;2023-05-08T20:42:30;97586.72;;;14.53;100.00
9439;BME280;5176;42.622;25.386;2023-05-08T20:44:59;97581.19;;;14.56;100.00
9439;BME280;5176;42.622;25.386;2023-05-08T20:47:29;97579.41;;;14.57;100.00
9439;BME280;5176;42.622;25.386;2023-05-08T20:49:58;97588.72;;;14.50;100.00
9439;BME280;5176;42.622;25.386;2023-05-08T20:52:26;97588.03;;;14.35;100.00
9439;BME280;5176;42.622;25.386;2023-05-08T20:54:56;97592.19;;;14.26;100.00
9439;BME280;5176;42.622;25.386;2023-05-08T20:57:25;97591.56;;;14.23;100.00
9439;BME280;5176;42.622;25.386;2023-05-08T20:59:54;97592.19;;;14.26;100.00
9439;BME280;5176;42.622;25.386;2023-05-08T21:02:22;97588.88;;;14.35;100.00
9439;BME280;5176;42.622;25.386;2023-05-08T21:04:53;97589.69;;;14.25;100.00
9439;BME280;5176;42.622;25.386;2023-05-08T21:07:23;97589.88;;;14.22;100.00
9439;BME280;5176;42.622;25.386;2023-05-08T21:09:51;97582.13;;;14.07;100.00
9439;BME280;5176;42.622;25.386;2023-05-08T21:12:20;97581.22;;;13.96;100.00
9439;BME280;5176;42.622;25.386;2023-05-08T21:14:49;97567.34;;;13.81;100.00
9439;BME280;5176;42.622;25.386;2023-05-08T21:17:18;97570.44;;;13.75;100.00
9439;BME280;5176;42.622;25.386;2023-05-08T21:19:47;97575.53;;;13.65;100.00
9439;BME280;5176;42.622;25.386;2023-05-08T21:22:17;97570.56;;;13.60;100.00
9439;BME280;5176;42.622;25.386;2023-05-08T21:24:46;97570.28;;;13.40;100.00
9439;BME280;5176;42.622;25.386;2023-05-08T21:27:15;97577.88;;;13.19;100.00
9439;BME280;5176;42.622;25.386;2023-05-08T21:29:44;97585.38;;;13.25;100.00
9439;BME280;5176;42.622;25.386;2023-05-08T21:32:13;97585.22;;;13.01;100.00
9439;BME280;5176;42.622;25.386;2023-05-08T21:34:42;97588.78;;;12.87;100.00
9439;BME280;5176;42.622;25.386;2023-05-08T21:37:11;97593.69;;;12.66;100.00
9439;BME280;5176;42.622;25.386;2023-05-08T21:39:42;97598.34;;;12.75;100.00
9439;BME280;5176;42.622;25.386;2023-05-08T21:42:11;97600.97;;;12.75;100.00
9439;BME280;5176;42.622;25.386;2023-05-08T21:44:40;97595.16;;;12.70;100.00
9439;BME280;5176;42.622;25.386;2023-05-08T21:47:10;97598.22;;;12.77;100.00
9439;BME280;5176;42.622;25.386;2023-05-08T21:49:39;97593.91;;;12.76;100.00
9439;BME280;5176;42.622;25.386;2023-05-08T21:52:09;97591.41;;;12.74;100.00
9439;BME280;5176;42.622;25.386;2023-05-08T21:54:41;97593.81;;;12.65;100.00
9439;BME280;5176;42.622;25.386;2023-05-08T21:57:10;97594.97;;;12.73;100.00
9439;BME280;5176;42.622;25.386;2023-05-08T21:59:39;97592.53;;;12.70;100.00
9439;BME280;5176;42.622;25.386;2023-05-08T22:02:08;97590.25;;;12.78;100.00
9439;BME280;5176;42.622;25.386;2023-05-08T22:04:37;97588.34;;;12.80;100.00
9439;BME280;5176;42.622;25.386;2023-05-08T22:07:06;97589.38;;;12.65;100.00
9439;BME280;5176;42.622;25.386;2023-05-08T22:09:35;97587.47;;;12.54;100.00
9439;BME280;5176;42.622;25.386;2023-05-08T22:12:06;97590.00;;;12.69;100.00
9439;BME280;5176;42.622;25.386;2023-05-08T22:14:35;97581.06;;;12.59;100.00
9439;BME280;5176;42.622;25.386;2023-05-08T22:17:05;97590.97;;;12.68;100.00
9439;BME280;5176;42.622;25.386;2023-05-08T22:19:34;97593.19;;;12.74;100.00
9439;BME280;5176;42.622;25.386;2023-05-08T22:22:03;97588.06;;;12.85;100.00
9439;BME280;5176;42.622;25.386;2023-05-08T22:24:32;97591.63;;;12.84;100.00
9439;BME280;5176;42.622;25.386;2023-05-08T22:27:01;97591.63;;;12.71;100.00
9439;BME280;5176;42.622;25.386;2023-05-08T22:29:31;97597.28;;;12.65;100.00
9439;BME280;5176;42.622;25.386;2023-05-08T22:32:00;97595.91;;;12.60;100.00
9439;BME280;5176;42.622;25.386;2023-05-08T22:34:29;97593.03;;;12.63;100.00
9439;BME280;5176;42.622;25.386;2023-05-08T22:36:58;97592.44;;;12.59;100.00
9439;BME280;5176;42.622;25.386;2023-05-08T22:39:27;97595.97;;;12.45;100.00
9439;BME280;5176;42.622;25.386;2023-05-08T22:41:57;97586.06;;;12.49;100.00
9439;BME280;5176;42.622;25.386;2023-05-08T22:44:26;97594.72;;;12.64;100.00
9439;BME280;5176;42.622;25.386;2023-05-08T22:46:57;97595.34;;;12.54;100.00
9439;BME280;5176;42.622;25.386;2023-05-08T22:49:25;97596.19;;;12.55;100.00
9439;BME280;5176;42.622;25.386;2023-05-08T22:51:54;97585.34;;;12.47;100.00
9439;BME280;5176;42.622;25.386;2023-05-08T22:54:23;97589.44;;;12.38;100.00
9439;BME280;5176;42.622;25.386;2023-05-08T22:56:52;97596.69;;;12.47;100.00
9439;BME280;5176;42.622;25.386;2023-05-08T22:59:21;97586.84;;;12.51;100.00
9439;BME280;5176;42.622;25.386;2023-05-08T23:01:51;97581.56;;;12.51;100.00
9439;BME280;5176;42.622;25.386;2023-05-08T23:04:22;97577.03;;;12.53;100.00
9439;BME280;5176;42.622;25.386;2023-05-08T23:06:50;97584.38;;;12.48;100.00
9439;BME280;5176;42.622;25.386;2023-05-08T23:09:19;97580.19;;;12.45;100.00
9439;BME280;5176;42.622;25.386;2023-05-08T23:11:49;97596.69;;;12.47;100.00
9439;BME280;5176;42.622;25.386;2023-05-08T23:14:17;97588.59;;;12.38;100.00
9439;BME280;5176;42.622;25.386;2023-05-08T23:16:46;97581.09;;;12.32;100.00
9439;BME280;5176;42.622;25.386;2023-05-08T23:19:15;97575.84;;;12.32;100.00
9439;BME280;5176;42.622;25.386;2023-05-08T23:21:46;97584.59;;;12.45;100.00
9439;BME280;5176;42.622;25.386;2023-05-08T23:24:15;97583.31;;;12.38;100.00
9439;BME280;5176;42.622;25.386;2023-05-08T23:26:44;97577.41;;;12.34;100.00
9439;BME280;5176;42.622;25.386;2023-05-08T23:29:14;97582.06;;;12.16;100.00
9439;BME280;5176;42.622;25.386;2023-05-08T23:31:43;97584.97;;;12.26;100.00
9439;BME280;5176;42.622;25.386;2023-05-08T23:34:12;97585.16;;;12.23;100.00
9439;BME280;5176;42.622;25.386;2023-05-08T23:36:41;97586.84;;;12.24;100.00
9439;BME280;5176;42.622;25.386;2023-05-08T23:39:12;97580.59;;;12.12;100.00
9439;BME280;5176;42.622;25.386;2023-05-08T23:41:41;97577.69;;;12.03;100.00
9439;BME280;5176;42.622;25.386;2023-05-08T23:44:10;97580.44;;;12.01;100.00
9439;BME280;5176;42.622;25.386;2023-05-08T23:46:39;97580.78;;;12.09;100.00
9439;BME280;5176;42.622;25.386;2023-05-08T23:49:07;97579.75;;;12.12;100.00
9439;BME280;5176;42.622;25.386;2023-05-08T23:51:37;97583.41;;;12.09;100.00
9439;BME280;5176;42.622;25.386;2023-05-08T23:54:05;97536.22;;;11.81;100.00
9439;BME280;5176;42.622;25.386;2023-05-08T23:56:36;97572.22;;;12.20;100.00
9439;BME280;5176;42.622;25.386;2023-05-08T23:59:05;97580.66;;;11.98;100.00
